Gure Gogoa — EAJC — position and weather

sailwx.info

Track history (hours):
 
Tides and Currents Weather Stations Pressure Air Temp Water Temp Dewpoint Dewpoint Depression Visibility Wind Speed Wind Dir Waves Ship Positions

Gure Gogoa

Last reported at 2017-Nov-17 13:31 UTC. Time now 2017-Nov-22 05:32 UTC.
Position N 43°18' W 002°12'.

Length 37 m.

Type: Fishing. MMSI: 224128930.

Date/timePositionNaut miles runAvg speedWind from/ knotsBaromVisibWave heightAir tempDewpointWater temp
2017-Nov-17 13:31N 43°18' W 002°12'1 6.0
2017-Nov-17 13:26N 43°19' W 002°11'510.7
2017-Nov-17 13:00N 43°23' W 002°09'510.9
2017-Nov-17 12:30N 43°27' W 002°05'510.6
2017-Nov-17 12:00N 43°32' W 002°02'510.5
2017-Nov-17 11:30N 43°37' W 001°58'510.5
2017-Nov-17 11:00N 43°41' W 001°54'510.5
2017-Nov-17 10:30N 43°46' W 001°51'1010.5
2017-Nov-17 09:33N 43°55' W 001°44'110.6
2017-Nov-17 09:29N 43°55' W 001°44'510.7
2017-Nov-17 09:00N 43°60' W 001°40'510.4
2017-Nov-17 08:30N 44°04' W 001°37'510.4
2017-Nov-17 08:00N 44°09' W 001°34'510.6
2017-Nov-17 07:30N 44°13' W 001°30'2 3.6
2017-Nov-17 07:00N 44°15' W 001°29'0 0.2
2017-Nov-17 06:30N 44°15' W 001°29'1 1.2
2017-Nov-17 06:00N 44°14' W 001°29'0 0.6
2017-Nov-17 05:30N 44°14' W 001°30'0 0.1
2017-Nov-17 05:00N 44°14' W 001°30'0 0.5
2017-Nov-17 04:30N 44°14' W 001°29'4 8.8
2017-Nov-17 04:00N 44°10' W 001°30'5 9.9
2017-Nov-17 03:30N 44°05' W 001°32'5 9.9
2017-Nov-17 03:00N 44°00' W 001°34'5 9.9
2017-Nov-17 02:30N 43°55' W 001°36'0 0.3
2017-Nov-17 02:00N 43°55' W 001°36'0 0.3
2017-Nov-17 01:30N 43°55' W 001°36'0 0.4
2017-Nov-17 01:00N 43°55' W 001°36'1 2.8
2017-Nov-17 00:30N 43°55' W 001°38'2 4.6
2017-Nov-17 00:00N 43°53' W 001°38'4 8.7
2017-Nov-16 23:30N 43°48' W 001°36'2 2.6
2017-Nov-16 22:45N 43°50' W 001°35'3 9.1
2017-Nov-16 22:29N 43°52' W 001°33'5 7.6
2017-Nov-16 21:48N 43°57' W 001°31'6 3.4
2017-Nov-16 20:08N 43°55' W 001°39'1 8.8
2017-Nov-16 20:00N 43°55' W 001°40'1 1.3
2017-Nov-16 19:30N 43°55' W 001°40'0 0.3
2017-Nov-16 19:00N 43°55' W 001°40'0 0.2
2017-Nov-16 18:30N 43°55' W 001°40'6 5.8
2017-Nov-16 17:26N 43°50' W 001°45'4 9.9
2017-Nov-16 17:00N 43°47' W 001°49'5 9.9
2017-Nov-16 16:30N 43°43' W 001°53'5 9.7
2017-Nov-16 16:00N 43°39' W 001°56'510.0
2017-Nov-16 15:30N 43°34' W 001°60'510.0
2017-Nov-16 15:00N 43°30' W 002°03'5 9.8
2017-Nov-16 14:30N 43°26' W 002°06'5 9.9
2017-Nov-16 14:00N 43°21' W 002°09'4 6.1
2017-Nov-16 13:25N 43°18' W 002°12'0 0.1
2017-Nov-16 12:40N 43°18' W 002°12'1 7.3
2017-Nov-16 12:30N 43°19' W 002°11'510.2
2017-Nov-16 12:00N 43°23' W 002°07'510.3
2017-Nov-16 11:30N 43°27' W 002°03'510.3
2017-Nov-16 11:00N 43°32' W 001°58'510.1
2017-Nov-16 10:30N 43°36' W 001°54'510.1
2017-Nov-16 10:00N 43°40' W 001°51'510.2
2017-Nov-16 09:30N 43°45' W 001°47'510.2
2017-Nov-16 09:00N 43°49' W 001°44'5 9.9
2017-Nov-16 08:30N 43°53' W 001°40'5 9.8
2017-Nov-16 08:00N 43°57' W 001°36'5 9.9
2017-Nov-16 07:30N 44°01' W 001°33'4 9.0
2017-Nov-16 07:00N 44°05' W 001°29'1 1.9
2017-Nov-16 06:30N 44°06' W 001°29'0 0.4
2017-Nov-16 06:00N 44°06' W 001°29'1 1.4
2017-Nov-16 05:30N 44°07' W 001°29'2 3.8
2017-Nov-16 05:00N 44°05' W 001°29'2 4.9
2017-Nov-16 04:30N 44°03' W 001°32'0 0.2
2017-Nov-16 04:00N 44°03' W 001°32'0 0.4
2017-Nov-16 03:30N 44°04' W 001°32'0 0.4
2017-Nov-16 03:00N 44°04' W 001°32'0 0.4
2017-Nov-16 02:30N 44°04' W 001°32'0 0.4
2017-Nov-16 02:00N 44°04' W 001°32'4 5.3
2017-Nov-16 01:11N 44°07' W 001°28'1 6.1
2017-Nov-16 01:00N 44°08' W 001°28'4 7.7
2017-Nov-16 00:30N 44°07' W 001°33'1 1.7
2017-Nov-16 00:00N 44°07' W 001°32'0 0.1
2017-Nov-15 23:30N 44°07' W 001°32'5 2.9
2017-Nov-15 21:54N 44°06' W 001°38'1 2.0
2017-Nov-15 21:30N 44°06' W 001°39'53 3.6
2017-Nov-15 06:38N 43°18' W 002°12'0 3.5
2017-Nov-15 06:30N 43°19' W 002°12'3 6.8
2017-Nov-15 06:00N 43°21' W 002°15'4 8.0
2017-Nov-15 05:30N 43°20' W 002°10'4 8.5
2017-Nov-15 05:00N 43°21' W 002°04'5 9.6
2017-Nov-15 04:30N 43°21' W 001°58'4 7.6
2017-Nov-15 04:00N 43°23' W 001°53'6 9.1
2017-Nov-15 03:19N 43°29' W 001°49'3 8.9
2017-Nov-15 03:00N 43°32' W 001°48'5 9.1
2017-Nov-15 02:30N 43°36' W 001°46'5 8.9
2017-Nov-15 01:59N 43°40' W 001°43'14 8.4
2017-Nov-15 00:18N 43°53' W 001°35'0 0.5
2017-Nov-14 23:50N 43°53' W 001°35'0 0.5
2017-Nov-14 23:30N 43°53' W 001°35'9 1.3
2017-Nov-14 17:01N 43°45' W 001°40'010.2
2017-Nov-14 16:58N 43°45' W 001°40'510.1
2017-Nov-14 16:30N 43°40' W 001°42'510.1
2017-Nov-14 16:00N 43°35' W 001°44'5 9.8
2017-Nov-14 15:30N 43°31' W 001°46'510.1
2017-Nov-14 15:00N 43°26' W 001°47'3 5.3
2017-Nov-14 14:30N 43°23' W 001°48'0 0.0
2017-Nov-14 13:59N 43°23' W 001°48'2 4.4
2017-Nov-14 13:29N 43°25' W 001°46'610.4
2017-Nov-14 12:57N 43°30' W 001°44'510.4
2017-Nov-14 12:30N 43°35' W 001°42'2810.2
2017-Nov-14 09:43N 44°02' W 001°33'210.2
2017-Nov-14 09:29N 44°05' W 001°32'510.2
2017-Nov-14 08:59N 44°10' W 001°31'17 3.9
2017-Nov-14 04:35N 44°27' W 001°27'2 6.6
2017-Nov-14 04:16N 44°29' W 001°28'  
2017-Nov-10 06:11N 43°18' W 002°12'1 7.6
2017-Nov-10 06:01N 43°20' W 002°12'4 7.2
2017-Nov-10 05:31N 43°20' W 002°07'4 7.2
2017-Nov-10 05:01N 43°21' W 002°02'4 7.3
2017-Nov-10 04:30N 43°22' W 001°57'3 7.0
2017-Nov-10 04:01N 43°24' W 001°54'6 7.7
2017-Nov-10 03:11N 43°29' W 001°48'1 7.9
2017-Nov-10 03:01N 43°30' W 001°47'4 8.0
2017-Nov-10 02:31N 43°34' W 001°45'5 8.2
2017-Nov-10 01:58N 43°38' W 001°42'4 8.2
2017-Nov-10 01:30N 43°41' W 001°40'2 5.0
2017-Nov-10 01:00N 43°44' W 001°41'2 3.4
2017-Nov-10 00:31N 43°45' W 001°40'1 0.6
2017-Nov-09 23:30N 43°45' W 001°40'0 0.7
2017-Nov-09 23:00N 43°44' W 001°40'5 9.6
2017-Nov-09 22:30N 43°40' W 001°42'5 9.8
2017-Nov-09 22:00N 43°35' W 001°45'5 9.6
2017-Nov-09 21:30N 43°32' W 001°49'5 9.2
2017-Nov-09 20:59N 43°28' W 001°54'4 9.0
2017-Nov-09 20:31N 43°25' W 001°58'5 9.1
2017-Nov-09 20:01N 43°22' W 002°03'5 9.3
2017-Nov-09 19:30N 43°20' W 002°08'3 6.0
2017-Nov-09 19:01N 43°18' W 002°12'  
Track history (hours):
 
Tides and Currents Weather Stations Pressure Air Temp Water Temp Dewpoint Dewpoint Depression Visibility Wind Speed Wind Dir Waves Ship Positions

Gure Gogoa

Last reported at 2017-Nov-17 13:31 UTC. Time now 2017-Nov-22 05:32 UTC.
Position N 43°18' W 002°12'.

Length 37 m.

Type: Fishing. MMSI: 224128930.

Date/timePositionNaut miles runAvg speedWind from/ knotsBaromVisibWave heightAir tempDewpointWater temp
2017-Nov-17 13:31N 43°18' W 002°12'1 6.0
2017-Nov-17 13:26N 43°19' W 002°11'510.7
2017-Nov-17 13:00N 43°23' W 002°09'510.9
2017-Nov-17 12:30N 43°27' W 002°05'510.6
2017-Nov-17 12:00N 43°32' W 002°02'510.5
2017-Nov-17 11:30N 43°37' W 001°58'510.5
2017-Nov-17 11:00N 43°41' W 001°54'510.5
2017-Nov-17 10:30N 43°46' W 001°51'1010.5
2017-Nov-17 09:33N 43°55' W 001°44'110.6
2017-Nov-17 09:29N 43°55' W 001°44'510.7
2017-Nov-17 09:00N 43°60' W 001°40'510.4
2017-Nov-17 08:30N 44°04' W 001°37'510.4
2017-Nov-17 08:00N 44°09' W 001°34'510.6
2017-Nov-17 07:30N 44°13' W 001°30'2 3.6
2017-Nov-17 07:00N 44°15' W 001°29'0 0.2
2017-Nov-17 06:30N 44°15' W 001°29'1 1.2
2017-Nov-17 06:00N 44°14' W 001°29'0 0.6
2017-Nov-17 05:30N 44°14' W 001°30'0 0.1
2017-Nov-17 05:00N 44°14' W 001°30'0 0.5
2017-Nov-17 04:30N 44°14' W 001°29'4 8.8
2017-Nov-17 04:00N 44°10' W 001°30'5 9.9
2017-Nov-17 03:30N 44°05' W 001°32'5 9.9
2017-Nov-17 03:00N 44°00' W 001°34'5 9.9
2017-Nov-17 02:30N 43°55' W 001°36'0 0.3
2017-Nov-17 02:00N 43°55' W 001°36'0 0.3
2017-Nov-17 01:30N 43°55' W 001°36'0 0.4
2017-Nov-17 01:00N 43°55' W 001°36'1 2.8
2017-Nov-17 00:30N 43°55' W 001°38'2 4.6
2017-Nov-17 00:00N 43°53' W 001°38'4 8.7
2017-Nov-16 23:30N 43°48' W 001°36'2 2.6
2017-Nov-16 22:45N 43°50' W 001°35'3 9.1
2017-Nov-16 22:29N 43°52' W 001°33'5 7.6
2017-Nov-16 21:48N 43°57' W 001°31'6 3.4
2017-Nov-16 20:08N 43°55' W 001°39'1 8.8
2017-Nov-16 20:00N 43°55' W 001°40'1 1.3
2017-Nov-16 19:30N 43°55' W 001°40'0 0.3
2017-Nov-16 19:00N 43°55' W 001°40'0 0.2
2017-Nov-16 18:30N 43°55' W 001°40'6 5.8
2017-Nov-16 17:26N 43°50' W 001°45'4 9.9
2017-Nov-16 17:00N 43°47' W 001°49'5 9.9
2017-Nov-16 16:30N 43°43' W 001°53'5 9.7
2017-Nov-16 16:00N 43°39' W 001°56'510.0
2017-Nov-16 15:30N 43°34' W 001°60'510.0
2017-Nov-16 15:00N 43°30' W 002°03'5 9.8
2017-Nov-16 14:30N 43°26' W 002°06'5 9.9
2017-Nov-16 14:00N 43°21' W 002°09'4 6.1
2017-Nov-16 13:25N 43°18' W 002°12'0 0.1
2017-Nov-16 12:40N 43°18' W 002°12'1 7.3
2017-Nov-16 12:30N 43°19' W 002°11'510.2
2017-Nov-16 12:00N 43°23' W 002°07'510.3
2017-Nov-16 11:30N 43°27' W 002°03'510.3
2017-Nov-16 11:00N 43°32' W 001°58'510.1
2017-Nov-16 10:30N 43°36' W 001°54'510.1
2017-Nov-16 10:00N 43°40' W 001°51'510.2
2017-Nov-16 09:30N 43°45' W 001°47'510.2
2017-Nov-16 09:00N 43°49' W 001°44'5 9.9
2017-Nov-16 08:30N 43°53' W 001°40'5 9.8
2017-Nov-16 08:00N 43°57' W 001°36'5 9.9
2017-Nov-16 07:30N 44°01' W 001°33'4 9.0
2017-Nov-16 07:00N 44°05' W 001°29'1 1.9
2017-Nov-16 06:30N 44°06' W 001°29'0 0.4
2017-Nov-16 06:00N 44°06' W 001°29'1 1.4
2017-Nov-16 05:30N 44°07' W 001°29'2 3.8
2017-Nov-16 05:00N 44°05' W 001°29'2 4.9
2017-Nov-16 04:30N 44°03' W 001°32'0 0.2
2017-Nov-16 04:00N 44°03' W 001°32'0 0.4
2017-Nov-16 03:30N 44°04' W 001°32'0 0.4
2017-Nov-16 03:00N 44°04' W 001°32'0 0.4
2017-Nov-16 02:30N 44°04' W 001°32'0 0.4
2017-Nov-16 02:00N 44°04' W 001°32'4 5.3
2017-Nov-16 01:11N 44°07' W 001°28'1 6.1
2017-Nov-16 01:00N 44°08' W 001°28'4 7.7
2017-Nov-16 00:30N 44°07' W 001°33'1 1.7
2017-Nov-16 00:00N 44°07' W 001°32'0 0.1
2017-Nov-15 23:30N 44°07' W 001°32'5 2.9
2017-Nov-15 21:54N 44°06' W 001°38'1 2.0
2017-Nov-15 21:30N 44°06' W 001°39'53 3.6
2017-Nov-15 06:38N 43°18' W 002°12'0 3.5
2017-Nov-15 06:30N 43°19' W 002°12'3 6.8
2017-Nov-15 06:00N 43°21' W 002°15'4 8.0
2017-Nov-15 05:30N 43°20' W 002°10'4 8.5
2017-Nov-15 05:00N 43°21' W 002°04'5 9.6
2017-Nov-15 04:30N 43°21' W 001°58'4 7.6
2017-Nov-15 04:00N 43°23' W 001°53'6 9.1
2017-Nov-15 03:19N 43°29' W 001°49'3 8.9
2017-Nov-15 03:00N 43°32' W 001°48'5 9.1
2017-Nov-15 02:30N 43°36' W 001°46'5 8.9
2017-Nov-15 01:59N 43°40' W 001°43'14 8.4
2017-Nov-15 00:18N 43°53' W 001°35'0 0.5
2017-Nov-14 23:50N 43°53' W 001°35'0 0.5
2017-Nov-14 23:30N 43°53' W 001°35'9 1.3
2017-Nov-14 17:01N 43°45' W 001°40'010.2
2017-Nov-14 16:58N 43°45' W 001°40'510.1
2017-Nov-14 16:30N 43°40' W 001°42'510.1
2017-Nov-14 16:00N 43°35' W 001°44'5 9.8
2017-Nov-14 15:30N 43°31' W 001°46'510.1
2017-Nov-14 15:00N 43°26' W 001°47'3 5.3
2017-Nov-14 14:30N 43°23' W 001°48'0 0.0
2017-Nov-14 13:59N 43°23' W 001°48'2 4.4
2017-Nov-14 13:29N 43°25' W 001°46'610.4
2017-Nov-14 12:57N 43°30' W 001°44'510.4
2017-Nov-14 12:30N 43°35' W 001°42'2810.2
2017-Nov-14 09:43N 44°02' W 001°33'210.2
2017-Nov-14 09:29N 44°05' W 001°32'510.2
2017-Nov-14 08:59N 44°10' W 001°31'17 3.9
2017-Nov-14 04:35N 44°27' W 001°27'2 6.6
2017-Nov-14 04:16N 44°29' W 001°28'  
2017-Nov-10 06:11N 43°18' W 002°12'1 7.6
2017-Nov-10 06:01N 43°20' W 002°12'4 7.2
2017-Nov-10 05:31N 43°20' W 002°07'4 7.2
2017-Nov-10 05:01N 43°21' W 002°02'4 7.3
2017-Nov-10 04:30N 43°22' W 001°57'3 7.0
2017-Nov-10 04:01N 43°24' W 001°54'6 7.7
2017-Nov-10 03:11N 43°29' W 001°48'1 7.9
2017-Nov-10 03:01N 43°30' W 001°47'4 8.0
2017-Nov-10 02:31N 43°34' W 001°45'5 8.2
2017-Nov-10 01:58N 43°38' W 001°42'4 8.2
2017-Nov-10 01:30N 43°41' W 001°40'2 5.0
2017-Nov-10 01:00N 43°44' W 001°41'2 3.4
2017-Nov-10 00:31N 43°45' W 001°40'1 0.6
2017-Nov-09 23:30N 43°45' W 001°40'0 0.7
2017-Nov-09 23:00N 43°44' W 001°40'5 9.6
2017-Nov-09 22:30N 43°40' W 001°42'5 9.8
2017-Nov-09 22:00N 43°35' W 001°45'5 9.6
2017-Nov-09 21:30N 43°32' W 001°49'5 9.2
2017-Nov-09 20:59N 43°28' W 001°54'4 9.0
2017-Nov-09 20:31N 43°25' W 001°58'5 9.1
2017-Nov-09 20:01N 43°22' W 002°03'5 9.3
2017-Nov-09 19:30N 43°20' W 002°08'3 6.0
2017-Nov-09 19:01N 43°18' W 002°12'  

Dump ship's entire track history